Terminal Aerodrome Forecast
Issued by NWS

Home | Current Version | Previous Version | Text Only | Print | Product List | Glossary Off
Versions: 1 2 3 4 5 6 7 8 9 10 11 12 13 14 15 16 17

929
FTUS43 KIWX 191621 AAA
TAFSBN
TAF AMD
KSBN 191621Z 1916/2012 10006KT 4SM -SHRA BR SCT008 OVC015
     FM191930 09005KT P6SM OVC025
     FM200600 VRB02KT 2SM BR BKN004
      TEMPO 2008/2012 1/2SM FG VV002=

USA.gov is the U.S. government's official web portal to all federal, state and local government web resources and services.